createdAt,value
2023-02-19T00:01:42.369Z,71.77
2023-02-19T00:04:15.135Z,71.66
2023-02-19T00:06:42.763Z,71.71
2023-02-19T00:09:11.590Z,71.54
2023-02-19T00:11:39.235Z,71.50
2023-02-19T00:14:06.700Z,71.78
2023-02-19T00:16:36.285Z,71.55
2023-02-19T00:19:06.264Z,71.75
2023-02-19T00:21:33.607Z,71.77
2023-02-19T00:24:05.584Z,71.62
2023-02-19T00:26:33.310Z,71.84
2023-02-19T00:29:01.029Z,71.84
2023-02-19T00:31:32.494Z,71.57
2023-02-19T00:34:05.328Z,71.92
2023-02-19T00:36:35.106Z,71.98
2023-02-19T00:39:02.466Z,71.91
2023-02-19T00:41:30.620Z,71.95
2023-02-19T00:43:59.494Z,71.71
2023-02-19T00:46:29.868Z,71.89
2023-02-19T00:48:57.487Z,72.01
2023-02-19T00:51:26.715Z,72.10
2023-02-19T00:53:53.805Z,72.03
2023-02-19T00:56:21.006Z,72.12
2023-02-19T00:58:48.168Z,72.03
2023-02-19T01:01:15.501Z,72.07
2023-02-19T01:03:42.564Z,71.85
2023-02-19T01:06:11.186Z,72.03
2023-02-19T01:08:38.382Z,72.07
2023-02-19T01:11:07.297Z,72.25
2023-02-19T01:13:34.520Z,72.16
2023-02-19T01:16:11.764Z,72.08
2023-02-19T01:18:39.203Z,72.31
2023-02-19T01:21:07.898Z,72.20
2023-02-19T01:23:36.011Z,72.35
2023-02-19T01:26:07.505Z,72.04
2023-02-19T01:28:35.318Z,72.10
2023-02-19T01:31:04.175Z,72.10
2023-02-19T01:33:31.380Z,72.12
2023-02-19T01:35:58.402Z,72.42
2023-02-19T01:38:25.724Z,72.24
2023-02-19T01:41:00.539Z,72.20
2023-02-19T01:43:28.034Z,72.41
2023-02-19T01:45:55.424Z,72.49
2023-02-19T01:48:35.549Z,72.47
2023-02-19T01:51:09.637Z,72.41
2023-02-19T01:53:41.023Z,72.80
2023-02-19T01:56:08.563Z,72.62
2023-02-19T01:58:37.289Z,72.79
2023-02-19T02:01:07.112Z,72.75
2023-02-19T02:03:36.122Z,72.78
2023-02-19T02:06:08.280Z,72.67
2023-02-19T02:08:55.216Z,72.50
2023-02-19T02:11:23.104Z,72.88
2023-02-19T02:13:50.649Z,72.74
2023-02-19T02:16:24.618Z,73.10
2023-02-19T02:19:02.150Z,73.25
2023-02-19T02:22:12.612Z,73.15
2023-02-19T02:25:05.647Z,72.99
2023-02-19T02:28:12.496Z,73.26
2023-02-19T02:30:43.897Z,73.03
2023-02-19T02:33:34.908Z,72.96
2023-02-19T02:36:09.292Z,73.16
2023-02-19T02:38:41.175Z,73.19
2023-02-19T02:41:09.121Z,73.13
2023-02-19T02:43:36.809Z,73.25
2023-02-19T02:46:04.117Z,73.35
2023-02-19T02:48:57.064Z,73.17
2023-02-19T02:51:30.819Z,73.37
2023-02-19T02:54:38.886Z,73.15
2023-02-19T02:57:14.962Z,73.24
2023-02-19T02:59:49.217Z,73.40
2023-02-19T03:02:24.008Z,73.37
2023-02-19T03:05:28.610Z,73.19
2023-02-19T03:08:16.033Z,73.56
2023-02-19T03:10:48.993Z,73.23
2023-02-19T03:13:39.796Z,73.34
2023-02-19T03:16:39.728Z,73.56
2023-02-19T03:19:28.911Z,73.54
2023-02-19T03:22:01.081Z,73.54
2023-02-19T03:24:52.203Z,73.43
2023-02-19T03:27:20.744Z,73.50
2023-02-19T03:29:53.686Z,73.25
2023-02-19T03:32:25.422Z,73.51
2023-02-19T03:35:06.188Z,73.86
2023-02-19T03:37:38.529Z,73.60
2023-02-19T03:40:06.203Z,73.84
2023-02-19T03:43:00.426Z,73.54
2023-02-19T03:45:49.562Z,73.60
2023-02-19T03:48:29.732Z,73.77
2023-02-19T03:51:06.205Z,73.92
2023-02-19T03:53:42.206Z,73.82
2023-02-19T03:56:19.022Z,73.85
2023-02-19T03:59:09.852Z,73.94
2023-02-19T04:01:43.457Z,73.94
2023-02-19T04:04:32.911Z,73.95
2023-02-19T04:07:00.507Z,73.90
2023-02-19T04:09:34.445Z,73.99
2023-02-19T04:12:07.316Z,73.90
2023-02-19T04:15:00.835Z,73.86
2023-02-19T04:17:34.568Z,74.14
2023-02-19T04:20:04.529Z,74.36
2023-02-19T04:22:31.556Z,73.81
2023-02-19T04:24:58.587Z,74.39
2023-02-19T04:27:25.611Z,74.22
2023-02-19T04:29:52.433Z,73.89
2023-02-19T04:32:19.396Z,74.17
2023-02-19T04:34:46.183Z,74.15
2023-02-19T04:37:13.126Z,74.41
2023-02-19T04:39:39.984Z,74.20
2023-02-19T04:42:06.836Z,74.48
2023-02-19T04:44:34.534Z,74.26
2023-02-19T04:47:01.561Z,74.46
2023-02-19T04:49:28.523Z,74.60
2023-02-19T04:51:55.442Z,74.58
2023-02-19T04:54:22.261Z,74.55
2023-02-19T04:56:50.796Z,74.36
2023-02-19T04:59:17.707Z,74.51
2023-02-19T05:01:44.636Z,74.53
2023-02-19T05:04:11.731Z,74.80
2023-02-19T05:06:38.611Z,74.99
2023-02-19T05:09:05.450Z,74.93
2023-02-19T05:11:32.331Z,74.65
2023-02-19T05:13:59.140Z,74.64
2023-02-19T05:16:26.245Z,74.69
2023-02-19T05:18:53.144Z,74.61
2023-02-19T05:21:20.160Z,74.50
2023-02-19T05:23:46.929Z,75.08
2023-02-19T05:26:19.868Z,74.68
2023-02-19T05:28:49.439Z,74.83
2023-02-19T05:31:17.112Z,74.72
2023-02-19T05:33:45.780Z,74.92
2023-02-19T05:36:13.988Z,74.81
2023-02-19T05:38:41.762Z,74.94
2023-02-19T05:41:14.661Z,75.37
2023-02-19T05:43:42.891Z,74.97
2023-02-19T05:46:11.196Z,75.11
2023-02-19T05:48:38.268Z,75.05
2023-02-19T05:51:07.802Z,74.97
2023-02-19T05:53:35.100Z,75.17
2023-02-19T05:56:02.093Z,75.24
2023-02-19T05:58:29.138Z,75.34
2023-02-19T06:00:56.200Z,75.08
2023-02-19T06:03:23.555Z,75.23
2023-02-19T06:05:50.531Z,75.30
2023-02-19T06:08:17.322Z,75.49
2023-02-19T06:10:44.257Z,75.26
2023-02-19T06:13:11.447Z,75.22
2023-02-19T06:15:38.768Z,75.16
2023-02-19T06:18:05.601Z,75.13
2023-02-19T06:20:33.141Z,75.62
2023-02-19T06:23:00.042Z,75.31
2023-02-19T06:25:26.878Z,75.29
2023-02-19T06:27:53.745Z,75.27
2023-02-19T06:30:20.734Z,75.27
2023-02-19T06:32:47.616Z,75.34
2023-02-19T06:35:14.486Z,75.10
2023-02-19T06:37:41.322Z,75.37
2023-02-19T06:40:09.326Z,75.20
2023-02-19T06:42:36.252Z,75.59
2023-02-19T06:45:03.014Z,75.37
2023-02-19T06:47:33.315Z,75.60
2023-02-19T06:50:00.617Z,75.25
2023-02-19T06:52:28.142Z,75.13
2023-02-19T06:54:55.016Z,75.21
2023-02-19T06:57:21.894Z,75.13
2023-02-19T06:59:48.870Z,75.21
2023-02-19T07:02:40.046Z,75.28
2023-02-19T07:05:23.624Z,75.34
2023-02-19T07:07:50.492Z,75.23
2023-02-19T07:10:17.364Z,75.40
2023-02-19T07:12:44.230Z,75.31
2023-02-19T07:15:11.181Z,75.36
2023-02-19T07:17:38.100Z,75.25
2023-02-19T07:20:05.162Z,74.95
2023-02-19T07:22:31.952Z,75.21
2023-02-19T07:24:58.825Z,75.22
2023-02-19T07:27:25.620Z,75.26
2023-02-19T07:29:53.021Z,75.13
2023-02-19T07:32:19.883Z,75.15
2023-02-19T07:34:46.712Z,75.26
2023-02-19T07:37:13.608Z,75.09
2023-02-19T07:39:40.417Z,75.20
2023-02-19T07:42:07.446Z,75.10
2023-02-19T07:44:34.365Z,75.04
2023-02-19T07:47:01.165Z,75.25
2023-02-19T07:49:28.859Z,75.33
2023-02-19T07:51:55.733Z,75.25
2023-02-19T07:54:22.644Z,75.20
2023-02-19T07:56:49.494Z,74.90
2023-02-19T07:59:19.468Z,74.69
2023-02-19T08:02:06.228Z,74.96
2023-02-19T08:04:33.377Z,74.92
2023-02-19T08:07:00.172Z,75.09
2023-02-19T08:09:27.069Z,74.64
2023-02-19T08:12:13.851Z,74.82
2023-02-19T08:14:40.715Z,74.74
2023-02-19T08:17:07.617Z,74.66
2023-02-19T08:19:34.610Z,74.75
2023-02-19T08:22:01.493Z,74.62
2023-02-19T08:24:28.444Z,74.52
2023-02-19T08:26:55.293Z,74.42
2023-02-19T08:29:22.230Z,74.39
2023-02-19T08:31:49.230Z,74.41
2023-02-19T08:34:16.163Z,74.31
2023-02-19T08:36:44.188Z,74.12
2023-02-19T08:39:11.002Z,74.14
2023-02-19T08:41:37.850Z,73.86
2023-02-19T08:44:04.804Z,73.92
2023-02-19T08:46:34.259Z,73.94
2023-02-19T08:49:01.397Z,73.62
2023-02-19T08:51:28.258Z,73.60
2023-02-19T08:53:55.038Z,73.25
2023-02-19T08:56:21.995Z,73.11
2023-02-19T08:58:48.821Z,73.17
2023-02-19T09:01:18.687Z,72.65
2023-02-19T09:03:46.142Z,72.75
2023-02-19T09:06:18.528Z,72.74
2023-02-19T09:08:45.601Z,72.56
2023-02-19T09:11:13.003Z,72.21
2023-02-19T09:13:40.169Z,72.15
2023-02-19T09:16:07.789Z,72.32
2023-02-19T09:18:34.924Z,72.03
2023-02-19T09:21:04.605Z,72.08
2023-02-19T09:23:36.048Z,71.58
2023-02-19T09:26:06.935Z,71.86
2023-02-19T09:28:33.999Z,71.91
2023-02-19T09:31:05.722Z,71.36
2023-02-19T09:33:32.612Z,71.75
2023-02-19T09:36:00.821Z,71.33
2023-02-19T09:38:29.455Z,71.54
2023-02-19T09:40:57.853Z,71.33
2023-02-19T09:43:27.004Z,70.89
2023-02-19T09:46:04.028Z,71.16
2023-02-19T09:48:31.202Z,70.64
2023-02-19T09:50:59.733Z,70.62
2023-02-19T09:53:30.149Z,70.18
2023-02-19T09:55:57.126Z,70.10
2023-02-19T09:58:30.097Z,70.32
2023-02-19T10:00:58.443Z,69.77
2023-02-19T10:03:33.741Z,69.91
2023-02-19T10:06:11.484Z,69.46
2023-02-19T10:08:40.760Z,69.61
2023-02-19T10:11:07.823Z,68.89
2023-02-19T10:13:42.653Z,68.64
2023-02-19T10:16:16.245Z,69.05
2023-02-19T10:18:44.849Z,68.56
2023-02-19T10:21:19.601Z,68.36
2023-02-19T10:23:47.559Z,68.71
2023-02-19T10:26:14.742Z,67.95
2023-02-19T10:28:41.758Z,67.66
2023-02-19T10:31:20.404Z,67.30
2023-02-19T10:33:50.466Z,67.59
2023-02-19T10:36:28.286Z,67.03
2023-02-19T10:38:57.144Z,67.18
2023-02-19T10:41:25.542Z,66.83
2023-02-19T10:44:16.142Z,66.45
2023-02-19T10:46:48.005Z,66.75
2023-02-19T10:49:37.528Z,66.03
2023-02-19T10:52:34.437Z,65.94
2023-02-19T10:55:25.947Z,65.36
2023-02-19T10:57:52.877Z,65.53
2023-02-19T11:00:27.502Z,65.49
2023-02-19T11:03:24.115Z,65.41
2023-02-19T11:05:56.465Z,65.01
2023-02-19T11:08:23.828Z,64.57
2023-02-19T11:10:51.008Z,64.32
2023-02-19T11:13:26.620Z,64.72
2023-02-19T11:15:54.968Z,64.48
2023-02-19T11:18:24.768Z,63.74
2023-02-19T11:21:03.464Z,63.57
2023-02-19T11:23:33.024Z,63.99
2023-02-19T11:26:03.050Z,63.91
2023-02-19T11:28:37.865Z,63.48
2023-02-19T11:31:25.877Z,63.29
2023-02-19T11:34:01.109Z,63.26
2023-02-19T11:36:33.640Z,63.04
2023-02-19T11:39:29.045Z,62.89
2023-02-19T11:42:35.823Z,62.50
2023-02-19T11:45:28.866Z,62.32
2023-02-19T11:48:35.615Z,62.51
2023-02-19T11:51:21.479Z,61.67
2023-02-19T11:54:00.313Z,61.96
2023-02-19T11:56:34.392Z,61.89
2023-02-19T11:59:08.305Z,61.74
2023-02-19T12:02:08.847Z,61.58
2023-02-19T12:04:59.762Z,60.83
2023-02-19T12:08:03.943Z,60.78
2023-02-19T12:11:01.223Z,61.41
2023-02-19T12:13:56.183Z,61.09
2023-02-19T12:16:31.871Z,61.29
2023-02-19T12:19:20.484Z,60.42
2023-02-19T12:22:15.254Z,61.13
2023-02-19T12:25:04.520Z,60.54
2023-02-19T12:28:11.120Z,60.82
2023-02-19T12:30:56.213Z,60.67
2023-02-19T12:34:03.061Z,60.79
2023-02-19T12:37:03.332Z,60.29
2023-02-19T12:40:01.798Z,60.08
2023-02-19T12:42:58.091Z,60.19
2023-02-19T12:45:32.270Z,59.97
2023-02-19T12:48:03.366Z,60.03
2023-02-19T12:50:31.440Z,59.68
2023-02-19T12:53:07.328Z,59.53
2023-02-19T12:55:37.812Z,59.38
2023-02-19T12:58:06.185Z,59.53
2023-02-19T13:00:50.624Z,59.08
2023-02-19T13:03:39.672Z,59.40
2023-02-19T13:06:35.194Z,59.07
2023-02-19T13:09:16.148Z,58.88
2023-02-19T13:11:48.408Z,58.72
2023-02-19T13:14:28.302Z,57.89
2023-02-19T13:17:01.643Z,57.94
2023-02-19T13:19:31.074Z,57.50
2023-02-19T13:22:25.450Z,57.36
2023-02-19T13:24:52.529Z,57.15
2023-02-19T13:27:50.168Z,57.29
2023-02-19T13:30:48.319Z,57.27
2023-02-19T13:33:42.247Z,56.90
2023-02-19T13:36:17.067Z,56.76
2023-02-19T13:38:46.872Z,56.67
2023-02-19T13:41:40.535Z,56.86
2023-02-19T13:44:16.523Z,56.66
2023-02-19T13:46:44.795Z,55.98
2023-02-19T13:49:47.169Z,56.34
2023-02-19T13:52:33.832Z,55.71
2023-02-19T13:55:42.457Z,55.69
2023-02-19T13:58:36.098Z,55.93
2023-02-19T14:01:11.954Z,55.83
2023-02-19T14:03:46.721Z,55.35
2023-02-19T14:06:13.712Z,55.57
2023-02-19T14:08:58.046Z,55.25
2023-02-19T14:12:04.871Z,55.56
2023-02-19T14:14:37.378Z,55.44
2023-02-19T14:17:26.147Z,55.24
2023-02-19T14:19:59.232Z,54.94
2023-02-19T14:22:57.101Z,55.14
2023-02-19T14:25:44.888Z,54.81
2023-02-19T14:28:30.310Z,54.99
2023-02-19T14:31:08.689Z,55.14
2023-02-19T14:33:40.194Z,54.81
2023-02-19T14:36:32.878Z,55.03
2023-02-19T14:39:06.934Z,55.02
2023-02-19T14:41:38.760Z,54.83
2023-02-19T14:44:06.240Z,54.67
2023-02-19T14:46:37.771Z,54.90
2023-02-19T14:49:11.884Z,55.02
2023-02-19T14:51:40.921Z,54.76
2023-02-19T14:54:17.060Z,54.93
2023-02-19T14:56:51.254Z,54.67
2023-02-19T14:59:24.083Z,54.68
2023-02-19T15:01:55.784Z,54.78
2023-02-19T15:04:25.613Z,54.81
2023-02-19T15:06:53.522Z,54.85
2023-02-19T15:09:21.845Z,54.73
2023-02-19T15:11:49.091Z,54.78
2023-02-19T15:14:23.840Z,54.60
2023-02-19T15:16:56.737Z,54.89
2023-02-19T15:19:23.762Z,54.83
2023-02-19T15:21:50.780Z,54.72
2023-02-19T15:24:18.651Z,54.61
2023-02-19T15:26:50.967Z,54.54
2023-02-19T15:29:20.644Z,54.41
2023-02-19T15:31:50.282Z,54.99
2023-02-19T15:34:25.925Z,54.70
2023-02-19T15:37:01.678Z,55.08
2023-02-19T15:39:39.492Z,55.01
2023-02-19T15:42:08.134Z,55.08
2023-02-19T15:44:47.509Z,55.17
2023-02-19T15:47:24.688Z,55.18
2023-02-19T15:49:58.473Z,55.07
2023-02-19T15:52:32.052Z,55.24
2023-02-19T15:55:11.268Z,54.76
2023-02-19T15:57:43.730Z,54.84
2023-02-19T16:00:20.058Z,55.01
2023-02-19T16:02:47.119Z,55.39
2023-02-19T16:05:18.044Z,55.08
2023-02-19T16:07:44.946Z,55.51
2023-02-19T16:10:21.316Z,55.55
2023-02-19T16:12:59.318Z,55.36
2023-02-19T16:15:28.215Z,55.22
2023-02-19T16:17:56.109Z,55.32
2023-02-19T16:20:29.074Z,55.68
2023-02-19T16:23:04.542Z,55.64
2023-02-19T16:25:41.890Z,55.76
2023-02-19T16:28:22.592Z,56.02
2023-02-19T16:31:10.725Z,55.83
2023-02-19T16:33:48.718Z,55.98
2023-02-19T16:36:36.687Z,56.13
2023-02-19T16:39:14.626Z,56.43
2023-02-19T16:42:17.043Z,56.46
2023-02-19T16:44:44.848Z,56.54
2023-02-19T16:47:24.467Z,56.56
2023-02-19T16:49:51.498Z,56.82
2023-02-19T16:52:18.405Z,56.40
2023-02-19T16:54:45.279Z,56.70
2023-02-19T16:57:12.145Z,56.91
2023-02-19T16:59:39.543Z,56.90
2023-02-19T17:02:06.924Z,57.27
2023-02-19T17:04:34.864Z,57.13
2023-02-19T17:07:02.507Z,57.18
2023-02-19T17:09:29.549Z,57.55
2023-02-19T17:11:56.428Z,57.38
2023-02-19T17:14:23.507Z,57.47
2023-02-19T17:16:50.396Z,57.25
2023-02-19T17:19:19.695Z,57.93
2023-02-19T17:21:47.175Z,57.69
2023-02-19T17:24:14.586Z,57.70
2023-02-19T17:26:41.692Z,57.62
2023-02-19T17:29:14.083Z,57.70
2023-02-19T17:31:41.803Z,57.94
2023-02-19T17:34:08.814Z,58.03
2023-02-19T17:36:37.951Z,58.25
2023-02-19T17:39:12.034Z,58.20
2023-02-19T17:41:38.988Z,58.19
2023-02-19T17:44:05.860Z,58.17
2023-02-19T17:46:34.078Z,58.62
2023-02-19T17:49:01.457Z,58.47
2023-02-19T17:51:28.418Z,58.36
2023-02-19T17:53:55.339Z,58.46
2023-02-19T17:56:25.575Z,58.59
2023-02-19T17:58:53.901Z,58.98
2023-02-19T18:01:22.325Z,58.88
2023-02-19T18:03:49.310Z,58.90
2023-02-19T18:06:16.689Z,59.13
2023-02-19T18:08:48.771Z,59.44
2023-02-19T18:11:16.273Z,59.54
2023-02-19T18:13:43.174Z,59.22
2023-02-19T18:16:12.813Z,59.70
2023-02-19T18:18:41.014Z,59.56
2023-02-19T18:21:09.651Z,59.71
2023-02-19T18:23:37.086Z,59.72
2023-02-19T18:26:06.472Z,59.99
2023-02-19T18:28:34.831Z,59.73
2023-02-19T18:31:04.726Z,59.87
2023-02-19T18:33:31.860Z,60.02
2023-02-19T18:35:58.768Z,60.23
2023-02-19T18:38:26.690Z,60.04
2023-02-19T18:40:53.634Z,60.46
2023-02-19T18:43:20.487Z,60.65
2023-02-19T18:45:47.540Z,60.90
2023-02-19T18:48:14.448Z,60.84
2023-02-19T18:50:41.492Z,60.88
2023-02-19T18:53:08.461Z,60.90
2023-02-19T18:55:35.372Z,61.42
2023-02-19T18:58:02.230Z,61.39
2023-02-19T19:00:29.176Z,61.31
2023-02-19T19:02:58.105Z,61.74
2023-02-19T19:05:25.508Z,61.43
2023-02-19T19:07:57.678Z,61.90
2023-02-19T19:10:24.731Z,61.72
2023-02-19T19:12:51.905Z,61.94
2023-02-19T19:15:19.077Z,62.27
2023-02-19T19:17:46.956Z,62.26
2023-02-19T19:20:16.294Z,62.51
2023-02-19T19:22:43.132Z,62.58
2023-02-19T19:25:10.250Z,62.88
2023-02-19T19:27:37.178Z,62.73
2023-02-19T19:30:05.111Z,63.12
2023-02-19T19:32:32.066Z,62.81
2023-02-19T19:34:58.933Z,63.05
2023-02-19T19:37:28.430Z,63.48
2023-02-19T19:39:56.427Z,63.25
2023-02-19T19:42:24.069Z,63.44
2023-02-19T19:44:51.140Z,63.75
2023-02-19T19:47:18.292Z,63.68
2023-02-19T19:49:48.369Z,64.13
2023-02-19T19:52:16.534Z,63.87
2023-02-19T19:54:43.686Z,64.27
2023-02-19T19:57:11.161Z,64.15
2023-02-19T19:59:39.632Z,64.18
2023-02-19T20:02:08.117Z,64.42
2023-02-19T20:04:35.022Z,64.46
2023-02-19T20:07:02.462Z,65.06
2023-02-19T20:09:29.529Z,64.81
2023-02-19T20:11:57.295Z,65.00
2023-02-19T20:14:25.944Z,64.96
2023-02-19T20:16:57.516Z,65.00
2023-02-19T20:19:25.864Z,64.98
2023-02-19T20:21:54.095Z,65.41
2023-02-19T20:24:30.020Z,65.19
2023-02-19T20:27:03.442Z,65.50
2023-02-19T20:29:33.702Z,65.29
2023-02-19T20:32:02.854Z,65.63
2023-02-19T20:34:31.050Z,65.31
2023-02-19T20:37:00.141Z,65.52
2023-02-19T20:39:29.444Z,65.68
2023-02-19T20:41:59.303Z,65.61
2023-02-19T20:44:29.501Z,65.63
2023-02-19T20:46:58.509Z,65.71
2023-02-19T20:49:30.652Z,65.80
2023-02-19T20:51:59.351Z,65.76
2023-02-19T20:54:29.724Z,65.76
2023-02-19T20:56:58.566Z,65.94
2023-02-19T20:59:30.884Z,65.85
2023-02-19T21:01:59.116Z,66.02
2023-02-19T21:04:27.218Z,66.04
2023-02-19T21:06:54.195Z,66.06
2023-02-19T21:09:22.828Z,66.11
2023-02-19T21:11:50.549Z,66.20
2023-02-19T21:14:17.696Z,66.23
2023-02-19T21:16:44.711Z,66.37
2023-02-19T21:19:11.682Z,66.40
2023-02-19T21:21:40.369Z,66.54
2023-02-19T21:24:09.327Z,66.57
2023-02-19T21:26:38.465Z,66.54
2023-02-19T21:29:07.091Z,66.72
2023-02-19T21:31:41.497Z,66.81
2023-02-19T21:34:10.290Z,66.84
2023-02-19T21:36:37.481Z,66.88
2023-02-19T21:39:05.724Z,66.77
2023-02-19T21:41:32.854Z,66.97
2023-02-19T21:43:59.749Z,66.96
2023-02-19T21:46:27.058Z,67.01
2023-02-19T21:48:55.692Z,66.85
2023-02-19T21:51:29.348Z,66.92
2023-02-19T21:53:56.312Z,66.92
2023-02-19T21:56:25.070Z,67.04
2023-02-19T21:58:52.043Z,67.13
2023-02-19T22:01:23.487Z,67.29
2023-02-19T22:03:50.610Z,67.34
2023-02-19T22:06:18.116Z,67.18
2023-02-19T22:08:45.269Z,67.42
2023-02-19T22:11:12.298Z,67.70
2023-02-19T22:13:39.766Z,67.59
2023-02-19T22:16:07.091Z,67.63
2023-02-19T22:18:34.678Z,67.72
2023-02-19T22:21:02.721Z,67.95
2023-02-19T22:23:29.558Z,67.77
2023-02-19T22:25:56.524Z,68.13
2023-02-19T22:28:23.337Z,68.01
2023-02-19T22:30:50.286Z,68.26
2023-02-19T22:33:17.280Z,68.23
2023-02-19T22:35:44.208Z,68.63
2023-02-19T22:38:11.152Z,68.37
2023-02-19T22:40:38.077Z,68.42
2023-02-19T22:43:04.900Z,68.71
2023-02-19T22:45:31.843Z,68.81
2023-02-19T22:47:58.766Z,68.78
2023-02-19T22:50:26.594Z,68.79
2023-02-19T22:52:56.418Z,68.90
2023-02-19T22:55:23.287Z,69.36
2023-02-19T22:57:50.141Z,69.32
2023-02-19T23:00:23.881Z,69.37
2023-02-19T23:02:50.798Z,69.49
2023-02-19T23:05:17.741Z,69.58
2023-02-19T23:07:45.825Z,69.54
2023-02-19T23:10:13.630Z,69.81
2023-02-19T23:12:40.950Z,69.88
2023-02-19T23:15:09.554Z,70.00
2023-02-19T23:17:36.631Z,70.09
2023-02-19T23:20:04.136Z,70.15
2023-02-19T23:22:30.976Z,70.16
2023-02-19T23:24:57.775Z,70.16
2023-02-19T23:27:26.700Z,70.14
2023-02-19T23:29:53.526Z,70.42
2023-02-19T23:32:21.162Z,70.31
2023-02-19T23:34:48.345Z,70.41
2023-02-19T23:37:15.764Z,70.53
2023-02-19T23:39:42.716Z,70.38
2023-02-19T23:42:13.846Z,70.45
2023-02-19T23:44:40.640Z,70.49
2023-02-19T23:47:07.443Z,70.36
2023-02-19T23:49:34.289Z,70.42
2023-02-19T23:52:01.081Z,70.51
2023-02-19T23:54:27.919Z,70.55
2023-02-19T23:56:55.740Z,70.45
2023-02-19T23:59:22.768Z,70.44
